• Join FlightAware (Why Join?)
  • Login
  • US Flag 
01:33PM EDT


 

Airport Tracker/Info


-or-


 

Live Flight TrackerFlight Track Log ✈ AMF9315 ✈ 12-Oct-2013 ✈ KHSV - KMQY

Flight Track Log - Related Links

Times and Time Zones

All times are in EDT time to prevent confusion due to time zone crossing. See the AMF9315 flight status page for this flight to view local times or setup timezone preferences in your user account.

Time Position Orientation Groundspeed Altitude Reporting Facility
EDT Latitude Longitude Course Direction KTS MPH feet Rate Location/Type
07:29AM 35.0311 -86.6444 12° North 257 296 7,000  Level Memphis Center
07:30AM 35.0992 -86.6261 12° North 257 296 7,000  Level Memphis Center
07:31AM 35.1672 -86.5978 19° North 257 296 7,000  Level Memphis Center
07:32AM 35.2333 -86.5794 13° North 257 296 7,000  Level Memphis Center
07:33AM 35.2994 -86.5511 19° North 250 288 7,000  Level Memphis Center
07:34AM 35.3675 -86.5303 14° North 245 282 7,000  Level Memphis Center
07:35AM 35.4397 -86.5039 17° North 250 288 7,000  Level Memphis Center
07:36AM 35.5053 -86.4678 24° Northeast 245 282 7,000  Level Memphis Center
07:37AM 35.5689 -86.4342 23° Northeast 250 288 7,000  Level Memphis Center
07:38AM 35.6369 -86.4106 16° North 250 288 7,000 -540 Level Memphis Center
07:39AM 35.7008 -86.3869 17° North 239 275 6,000 -1,260 Descending Memphis Center
07:40AM 35.7669 -86.3658 15° North 239 275 4,500 -1,500 Descending Memphis Center
07:41AM 35.8314 -86.3603 North 239 275 3,100 -1,200 Descending Memphis Center
07:42AM 35.8847 -86.3936 14° North 217 250 2,200 -600 Descending Memphis Center
07:43AM 35.9233 -86.4300 323° Northwest 189 217 1,900 -300 Descending Memphis Center
07:44AM 35.9514 -86.4619 317° Northwest 154 177 1,600 -480 Descending Memphis Center
07:45AM 35.9814 -86.4914 322° Northwest 136 157 1,000 -600 Descending Memphis Center
07:46AM 36.0011 -86.5161 315° West 125 144 500 -300 Descending Memphis Center
07:47AM 36.0075 -86.5208 329° Northwest 110 127 500  Level Memphis Center
07:48AM 36.0183 -86.5358 312° West 63 72 500  Level Memphis Center
07:52AM 36.0090 -86.5201 122° Southeast  Level Estimated
07:59AM 36.0090 -86.5201 122° Southeast  Level Estimated
08:00AM 36.0090 -86.5201 122° Southeast  Level Estimated
08:01AM 36.0090 -86.5201 122° Southeast  Level Estimated
08:02AM 36.0090 -86.5201 122° Southeast  Level Estimated
08:03AM 36.0090 -86.5201 122° Southeast  Level Estimated
08:04AM 36.0090 -86.5201 122° Southeast  Level Estimated
08:05AM 36.0090 -86.5201 122° Southeast  Level Estimated
08:06AM 36.0090 -86.5201 122° Southeast  Level Estimated